Time;durP1;ratioP1;P1;durP2;ratioP2;P2;SDS_P1;SDS_P2;PMS_P1;PMS_P2;Temp;Humidity;BMP_temperature;BMP_pressure;BME280_temperature;BME280_humidity;BME280_pressure;Samples;Min_cycle;Max_cycle;Signal;HPM_P1;HPM_P2
2023/01/24 00:01:37;;;;;;;22.80;13.17;;;0.30;1.00;;;;;;10479616;28;20488;-78
2023/01/24 00:06:58;;;;;;;17.40;12.53;;;0.30;1.00;;;;;;10431500;28;20265;-78
2023/01/24 00:12:19;;;;;;;16.33;11.03;;;0.30;1.00;;;;;;10460793;28;20277;-77
2023/01/24 00:17:40;;;;;;;18.70;11.60;;;0.40;1.00;;;;;;10475016;28;20240;-76
2023/01/24 00:23:01;;;;;;;15.03;10.40;;;0.50;99.90;;;;;;10477844;28;20204;-77
2023/01/24 00:28:22;;;;;;;17.07;10.57;;;0.40;1.00;;;;;;10435385;28;20526;-76
2023/01/24 00:33:43;;;;;;;18.60;11.00;;;0.40;1.00;;;;;;10444255;28;20559;-76
2023/01/24 00:39:04;;;;;;;17.70;12.63;;;0.40;1.00;;;;;;10477632;28;20201;-77
2023/01/24 00:44:26;;;;;;;19.37;12.57;;;0.50;1.00;;;;;;10475904;28;20207;-77
2023/01/24 00:49:46;;;;;;;18.93;12.33;;;0.60;1.00;;;;;;10477506;28;20541;-77
2023/01/24 00:55:08;;;;;;;15.57;10.93;;;0.60;1.00;;;;;;10475206;28;20237;-78
2023/01/24 01:00:29;;;;;;;17.17;12.43;;;0.60;1.00;;;;;;10463295;28;20192;-76
2023/01/24 01:05:56;;;;;;;13.87;10.67;;;0.60;1.00;;;;;;10475006;28;20248;-76
2023/01/24 01:11:17;;;;;;;17.60;12.30;;;0.50;1.00;;;;;;10476800;28;20277;-75
2023/01/24 01:16:38;;;;;;;17.60;11.87;;;0.40;1.00;;;;;;10476842;28;20277;-77
2023/01/24 01:21:59;;;;;;;19.27;13.53;;;0.40;1.00;;;;;;10477443;28;20202;-78
2023/01/24 01:27:20;;;;;;;17.70;11.53;;;0.50;1.00;;;;;;10475341;28;20501;-78
2023/01/24 01:32:41;;;;;;;19.97;12.30;;;0.40;1.00;;;;;;10477375;28;20520;-76
2023/01/24 01:38:02;;;;;;;19.43;12.70;;;0.40;1.00;;;;;;10476090;28;20273;-76
2023/01/24 01:43:26;;;;;;;17.03;10.73;;;0.50;1.00;;;;;;10481967;28;20213;-75
2023/01/24 01:48:51;;;;;;;16.10;11.07;;;0.50;1.00;;;;;;10483818;28;20219;-77
2023/01/24 01:54:20;;;;;;;17.53;11.77;;;0.30;99.90;;;;;;10481937;28;20185;-76
2023/01/24 01:59:50;;;;;;;16.40;10.60;;;0.20;1.00;;;;;;10443144;28;20195;-77
2023/01/24 02:05:16;;;;;;;21.43;12.77;;;0.30;1.00;;;;;;10443775;28;20204;-78
2023/01/24 02:16:18;;;;;;;16.77;11.50;;;0.30;1.00;;;;;;10482491;28;20204;-78
2023/01/24 02:21:39;;;;;;;17.90;11.30;;;0.40;1.00;;;;;;10483138;28;20236;-78
2023/01/24 02:27:00;;;;;;;15.87;11.17;;;0.20;1.00;;;;;;10481478;28;20205;-78
2023/01/24 02:32:21;;;;;;;16.93;11.97;;;0.30;22.10;;;;;;10482051;28;20408;-75
2023/01/24 02:37:42;;;;;;;18.27;13.07;;;0.40;1.00;;;;;;10480310;28;20211;-78
2023/01/24 02:43:06;;;;;;;14.90;10.67;;;0.30;1.00;;;;;;10460674;28;20394;-77
2023/01/24 02:48:27;;;;;;;16.27;10.73;;;0.40;1.00;;;;;;10482210;28;20188;-78
2023/01/24 02:53:48;;;;;;;17.57;11.80;;;0.30;99.90;;;;;;10477912;28;20250;-78
2023/01/24 02:59:09;;;;;;;17.60;12.37;;;0.30;1.00;;;;;;10425552;28;20262;-78
2023/01/24 03:04:31;;;;;;;17.53;11.80;;;0.30;99.90;;;;;;10471033;28;20212;-78
2023/01/24 03:09:52;;;;;;;16.17;10.83;;;0.30;26.90;;;;;;10480234;28;20230;-78
2023/01/24 03:43:36;;;;;;;14.27;9.63;;;0.20;99.90;;;;;;10479274;28;20190;-78
2023/01/24 03:48:57;;;;;;;19.43;13.03;;;0.10;99.90;;;;;;10476101;28;20269;-77
2023/01/24 03:54:30;;;;;;;17.63;11.63;;;0.20;99.90;;;;;;10478920;28;20231;-78
2023/01/24 03:59:56;;;;;;;16.50;10.33;;;0.20;99.90;;;;;;10478866;28;20244;-77
2023/01/24 04:05:20;;;;;;;18.27;11.33;;;0.20;1.00;;;;;;10477756;28;20225;-77
2023/01/24 04:10:41;;;;;;;15.90;11.60;;;0.20;99.90;;;;;;10478554;28;20478;-78
2023/01/24 04:16:06;;;;;;;15.57;10.63;;;0.20;1.00;;;;;;10477159;28;20193;-78
2023/01/24 04:21:42;;;;;;;15.63;10.87;;;0.20;1.60;;;;;;10477616;28;20248;-78
2023/01/24 04:27:05;;;;;;;16.67;10.73;;;0.20;1.00;;;;;;10477840;28;20203;-78
2023/01/24 04:32:49;;;;;;;14.43;9.50;;;0.20;1.00;;;;;;10477099;28;20321;-78
2023/01/24 04:38:15;;;;;;;13.87;9.93;;;0.20;99.90;;;;;;10477605;28;20418;-78
2023/01/24 04:43:54;;;;;;;13.93;10.03;;;0.10;1.00;;;;;;10477113;28;20406;-78
2023/01/24 04:49:17;;;;;;;14.43;9.73;;;0.10;1.00;;;;;;10474421;28;20226;-76
2023/01/24 04:54:41;;;;;;;28.10;20.33;;;0.10;16.40;;;;;;10476642;28;20304;-78
2023/01/24 05:00:04;;;;;;;28.07;21.60;;;0.00;27.30;;;;;;10476716;28;20194;-76
2023/01/24 05:05:26;;;;;;;17.50;12.13;;;-0.10;18.00;;;;;;10461658;28;20230;-76
2023/01/24 05:10:48;;;;;;;13.83;9.93;;;-0.10;1.00;;;;;;10476621;28;20226;-76
2023/01/24 05:16:09;;;;;;;19.03;10.40;;;0.00;46.30;;;;;;10480168;28;20192;-78
2023/01/24 05:21:31;;;;;;;14.67;9.83;;;0.00;1.00;;;;;;10482943;28;20285;-78
2023/01/24 05:26:52;;;;;;;13.17;9.27;;;0.00;1.00;;;;;;10470721;28;20441;-78
2023/01/24 05:32:18;;;;;;;12.00;9.20;;;-0.10;99.90;;;;;;10469969;28;20229;-78
2023/01/24 05:37:40;;;;;;;12.40;9.30;;;-0.10;99.90;;;;;;10483138;28;20199;-78
2023/01/24 05:43:03;;;;;;;14.07;9.17;;;-0.10;99.90;;;;;;10483516;28;20271;-76
2023/01/24 05:48:24;;;;;;;14.63;9.63;;;-0.20;1.00;;;;;;10483220;28;20296;-78
2023/01/24 05:53:47;;;;;;;17.83;11.10;;;-0.10;99.90;;;;;;10468647;28;20267;-75
2023/01/24 05:59:25;;;;;;;13.70;10.17;;;-0.20;1.00;;;;;;10468518;28;20248;-76
2023/01/24 06:04:47;;;;;;;15.97;10.63;;;-0.20;99.90;;;;;;10481136;28;20248;-77
2023/01/24 06:10:08;;;;;;;11.37;7.83;;;-0.20;99.90;;;;;;10468212;28;20283;-76
2023/01/24 06:15:41;;;;;;;12.13;8.17;;;-0.20;1.00;;;;;;10455144;28;20276;-76
2023/01/24 06:21:22;;;;;;;14.83;9.33;;;-0.20;99.90;;;;;;10466200;28;20210;-77
2023/01/24 06:26:47;;;;;;;17.30;11.07;;;-0.30;99.90;;;;;;10479598;28;20197;-77
2023/01/24 06:32:40;;;;;;;24.73;11.57;;;-0.30;1.00;;;;;;10482605;28;20238;-78
2023/01/24 06:38:01;;;;;;;16.03;10.67;;;-0.30;99.90;;;;;;10488007;28;20213;-78
2023/01/24 06:43:23;;;;;;;25.00;12.43;;;-0.30;1.00;;;;;;10481129;28;20206;-78
2023/01/24 06:48:45;;;;;;;18.93;10.77;;;-0.20;1.00;;;;;;10481031;28;20195;-78
2023/01/24 06:54:06;;;;;;;21.70;12.80;;;-0.20;1.00;;;;;;10480607;28;20198;-78
2023/01/24 06:59:27;;;;;;;19.47;13.13;;;-0.10;1.00;;;;;;10478827;28;20519;-78
2023/01/24 07:04:48;;;;;;;19.73;14.00;;;-0.10;99.90;;;;;;10480535;28;20186;-79
2023/01/24 07:10:10;;;;;;;20.97;13.83;;;-0.10;24.20;;;;;;10479613;28;20261;-78
2023/01/24 07:15:33;;;;;;;40.47;22.73;;;-0.20;1.00;;;;;;10479934;28;20201;-78
2023/01/24 07:20:55;;;;;;;23.77;13.93;;;-0.20;1.00;;;;;;10465367;28;20460;-78
2023/01/24 07:26:16;;;;;;;40.13;26.23;;;-0.20;99.90;;;;;;10480180;28;20198;-78
2023/01/24 07:31:38;;;;;;;60.60;35.83;;;-0.10;1.00;;;;;;10478498;28;20276;-78
2023/01/24 07:36:59;;;;;;;21.03;13.43;;;-0.10;1.00;;;;;;10479448;28;20217;-78
2023/01/24 07:42:20;;;;;;;18.27;14.00;;;-0.10;1.00;;;;;;10478730;28;20214;-78
2023/01/24 07:47:41;;;;;;;27.73;17.13;;;-0.10;21.10;;;;;;10478796;28;20435;-78
2023/01/24 07:53:02;;;;;;;39.43;21.67;;;-0.10;1.00;;;;;;10479104;28;20481;-78
2023/01/24 07:58:23;;;;;;;29.23;16.53;;;0.00;1.00;;;;;;10468648;28;20485;-78
2023/01/24 08:03:45;;;;;;;33.00;20.07;;;-0.10;1.00;;;;;;10437865;28;20190;-78
2023/01/24 08:09:06;;;;;;;27.77;17.93;;;-0.10;1.00;;;;;;10437524;28;20270;-79
2023/01/24 08:14:27;;;;;;;29.17;18.37;;;-0.10;6.70;;;;;;10463014;28;20206;-78
2023/01/24 08:19:48;;;;;;;41.67;23.80;;;-0.10;15.70;;;;;;10478492;28;20365;-79
2023/01/24 08:25:16;;;;;;;55.97;33.73;;;-0.10;1.00;;;;;;10473340;28;20245;-78
2023/01/24 08:30:37;;;;;;;31.30;19.50;;;-0.10;1.00;;;;;;10462526;28;20225;-77
2023/01/24 08:35:59;;;;;;;22.83;16.20;;;-0.20;99.90;;;;;;10472103;28;20194;-78
2023/01/24 08:41:20;;;;;;;28.20;17.23;;;-0.30;99.90;;;;;;10472392;28;20212;-78
2023/01/24 08:46:41;;;;;;;55.13;27.87;;;-0.30;1.00;;;;;;10466795;28;20216;-77
2023/01/24 08:52:02;;;;;;;22.97;14.50;;;-0.20;1.00;;;;;;10477145;28;20219;-79
2023/01/24 08:57:23;;;;;;;23.07;14.80;;;-0.10;1.00;;;;;;10478925;28;20317;-82
2023/01/24 09:02:45;;;;;;;20.40;14.00;;;-0.10;99.90;;;;;;10425010;28;20213;-78
2023/01/24 09:08:06;;;;;;;23.43;13.77;;;-0.10;1.00;;;;;;10439550;28;20197;-77
2023/01/24 09:13:28;;;;;;;22.87;13.97;;;-0.10;1.00;;;;;;10457507;28;20531;-78
2023/01/24 09:18:51;;;;;;;21.87;15.03;;;-0.10;1.00;;;;;;10486209;28;20230;-78
2023/01/24 09:24:11;;;;;;;56.70;21.13;;;-0.10;1.00;;;;;;10439841;28;20277;-78
2023/01/24 09:29:32;;;;;;;27.77;16.87;;;-0.10;1.00;;;;;;10472525;28;20299;-78
2023/01/24 09:34:55;;;;;;;26.30;16.50;;;0.10;28.90;;;;;;10510473;28;20240;-77
2023/01/24 09:40:26;;;;;;;23.37;14.53;;;0.20;99.90;;;;;;10478216;28;20764;-77
2023/01/24 09:46:15;;;;;;;21.13;14.37;;;0.20;1.00;;;;;;10491888;28;20240;-77
2023/01/24 09:51:45;;;;;;;40.20;22.73;;;0.20;1.00;;;;;;10487361;28;20221;-77
2023/01/24 09:57:16;;;;;;;31.77;19.40;;;0.20;79.20;;;;;;10477562;28;20258;-78
2023/01/24 10:02:39;;;;;;;26.63;18.83;;;0.20;1.00;;;;;;10495503;28;20289;-77
2023/01/24 10:08:22;;;;;;;22.90;15.90;;;0.40;1.00;;;;;;10504648;28;20566;-79
2023/01/24 10:13:55;;;;;;;24.00;17.10;;;0.30;63.40;;;;;;10496370;28;20415;-78
2023/01/24 10:19:22;;;;;;;29.67;18.83;;;0.30;99.90;;;;;;10468746;28;20206;-81
2023/01/24 10:24:56;;;;;;;29.77;18.73;;;0.20;1.00;;;;;;10476265;28;20246;-80
2023/01/24 10:30:29;;;;;;;25.03;17.73;;;0.10;99.90;;;;;;10466218;28;20402;-83
2023/01/24 10:36:16;;;;;;;26.60;15.63;;;0.30;1.00;;;;;;10447121;28;20517;-81
2023/01/24 10:41:38;;;;;;;23.37;15.60;;;0.40;1.00;;;;;;10474822;28;20207;-77
2023/01/24 10:47:05;;;;;;;23.30;14.30;;;0.40;1.00;;;;;;10476716;28;20197;-77
2023/01/24 10:52:27;;;;;;;17.80;13.30;;;0.40;1.00;;;;;;10475506;28;20414;-77
2023/01/24 10:57:54;;;;;;;29.63;18.83;;;0.40;1.00;;;;;;10474845;28;20587;-77
2023/01/24 11:03:22;;;;;;;126.20;50.83;;;0.20;1.00;;;;;;10476100;28;20208;-82
2023/01/24 11:08:44;;;;;;;46.53;23.97;;;0.20;99.90;;;;;;10486470;28;20205;-78
2023/01/24 11:14:14;;;;;;;25.10;14.93;;;0.20;1.00;;;;;;10474659;28;20234;-77
2023/01/24 11:19:39;;;;;;;25.27;14.00;;;0.20;1.00;;;;;;10474016;28;20201;-78
2023/01/24 11:25:03;;;;;;;20.50;12.47;;;0.20;1.00;;;;;;10459709;28;20213;-78
2023/01/24 11:30:25;;;;;;;21.00;12.37;;;0.20;99.90;;;;;;10463399;28;20228;-78
2023/01/24 11:35:55;;;;;;;17.53;12.13;;;0.40;1.00;;;;;;10474720;28;20248;-78
2023/01/24 11:41:26;;;;;;;13.53;10.07;;;0.40;1.00;;;;;;10473015;28;20206;-79
2023/01/24 11:46:54;;;;;;;15.70;10.07;;;0.50;1.00;;;;;;10473979;28;20397;-78
2023/01/24 11:52:39;;;;;;;16.27;11.33;;;0.50;1.00;;;;;;10473827;28;20225;-79
2023/01/24 11:58:16;;;;;;;18.93;11.93;;;0.60;1.00;;;;;;10471426;28;20238;-78
2023/01/24 12:03:51;;;;;;;15.30;9.93;;;0.70;1.00;;;;;;10473540;28;20195;-79
2023/01/24 12:09:18;;;;;;;15.00;9.80;;;0.70;99.90;;;;;;10466109;28;20221;-78
2023/01/24 12:14:57;;;;;;;15.97;10.23;;;0.70;1.00;;;;;;10470441;28;20262;-78
2023/01/24 12:20:39;;;;;;;19.47;10.80;;;0.70;1.00;;;;;;10471722;28;20209;-78
2023/01/24 12:26:07;;;;;;;13.03;9.13;;;0.70;1.00;;;;;;10468965;28;20213;-78
2023/01/24 12:31:54;;;;;;;16.80;9.53;;;0.80;1.00;;;;;;10429648;28;20460;-79
2023/01/24 12:37:49;;;;;;;14.23;9.23;;;0.90;1.00;;;;;;10454801;28;20500;-79
2023/01/24 12:43:21;;;;;;;16.70;9.07;;;0.90;26.60;;;;;;10450744;28;20413;-78
2023/01/24 12:49:01;;;;;;;17.07;8.33;;;0.90;1.00;;;;;;10430636;28;20202;-77
2023/01/24 12:55:00;;;;;;;11.00;7.43;;;0.90;99.90;;;;;;10435292;28;20305;-81
2023/01/24 13:00:23;;;;;;;11.27;7.87;;;0.90;1.00;;;;;;10451436;28;20227;-79
2023/01/24 13:06:19;;;;;;;15.10;8.40;;;0.80;1.00;;;;;;10480501;28;20221;-78
2023/01/24 13:11:46;;;;;;;14.93;10.23;;;0.70;1.00;;;;;;10502818;28;20263;-78
2023/01/24 13:17:43;;;;;;;20.90;11.07;;;0.70;99.90;;;;;;10495228;28;20214;-79
2023/01/24 13:23:31;;;;;;;29.20;16.33;;;0.70;17.00;;;;;;10493082;28;20206;-80
2023/01/24 13:29:19;;;;;;;12.83;9.07;;;0.70;1.00;;;;;;10476697;28;20217;-79
2023/01/24 13:34:52;;;;;;;13.67;9.80;;;0.80;1.00;;;;;;10480807;28;20276;-81
2023/01/24 13:40:13;;;;;;;17.40;10.50;;;0.80;1.00;;;;;;10479424;28;20513;-77
2023/01/24 13:45:40;;;;;;;14.73;8.13;;;0.70;1.00;;;;;;10476368;28;20201;-79
2023/01/24 13:51:19;;;;;;;14.70;9.40;;;0.70;1.00;;;;;;10464255;28;20234;-77
2023/01/24 13:57:20;;;;;;;17.63;9.60;;;0.60;1.00;;;;;;10474802;28;20264;-79
2023/01/24 14:02:47;;;;;;;21.10;10.73;;;0.50;99.90;;;;;;10475234;28;20224;-79
2023/01/24 14:08:35;;;;;;;20.53;10.37;;;0.60;68.10;;;;;;10477211;28;20193;-78
2023/01/24 14:14:01;;;;;;;17.37;9.87;;;0.60;1.00;;;;;;10476858;28;20244;-78
2023/01/24 14:19:29;;;;;;;22.67;12.40;;;0.50;99.90;;;;;;10439746;28;20288;-78
2023/01/24 14:25:19;;;;;;;17.30;8.87;;;0.60;1.00;;;;;;10416730;28;20233;-78
2023/01/24 14:30:47;;;;;;;13.67;8.47;;;0.60;1.00;;;;;;10445316;28;20246;-81
2023/01/24 14:36:22;;;;;;;11.60;7.30;;;0.60;99.90;;;;;;10417312;28;20225;-78
2023/01/24 14:41:46;;;;;;;13.40;8.73;;;0.60;99.90;;;;;;10432131;28;20250;-78
2023/01/24 14:47:23;;;;;;;11.60;7.77;;;0.60;94.30;;;;;;10416140;28;20280;-77
2023/01/24 14:52:44;;;;;;;15.00;10.00;;;0.60;99.90;;;;;;10466709;28;20238;-83
2023/01/24 14:58:15;;;;;;;12.43;8.63;;;0.60;99.90;;;;;;10476065;28;20269;-81
2023/01/24 15:03:37;;;;;;;15.50;8.57;;;0.60;1.00;;;;;;10476187;28;20209;-78
2023/01/24 15:09:00;;;;;;;15.10;9.20;;;0.60;99.90;;;;;;10474765;28;20316;-79
2023/01/24 15:14:21;;;;;;;14.50;9.87;;;0.60;1.00;;;;;;10474236;28;20227;-80
2023/01/24 15:19:42;;;;;;;20.20;11.50;;;0.60;1.00;;;;;;10466948;28;20212;-82
2023/01/24 15:25:15;;;;;;;17.50;10.00;;;0.60;1.00;;;;;;10432523;28;20274;-79
2023/01/24 15:30:36;;;;;;;13.37;8.53;;;0.60;1.00;;;;;;10468608;28;20248;-78
2023/01/24 15:35:57;;;;;;;17.33;10.40;;;0.60;99.90;;;;;;10481753;28;20585;-82
2023/01/24 15:41:21;;;;;;;12.03;7.97;;;0.60;1.00;;;;;;10474556;28;20211;-78
2023/01/24 15:52:32;;;;;;;15.63;10.77;;;0.50;1.00;;;;;;10501452;28;20304;-78
2023/01/24 15:57:53;;;;;;;14.77;9.47;;;0.50;1.00;;;;;;10515589;28;20459;-78
2023/01/24 16:03:14;;;;;;;22.50;13.23;;;0.50;1.00;;;;;;10515778;28;20248;-77
2023/01/24 16:08:35;;;;;;;20.50;12.47;;;0.50;1.00;;;;;;10484436;28;20481;-79
2023/01/24 16:13:56;;;;;;;23.53;11.90;;;0.60;99.90;;;;;;10478221;28;20221;-78
2023/01/24 16:19:20;;;;;;;16.83;10.20;;;0.50;99.90;;;;;;10478423;28;20193;-78
2023/01/24 16:24:42;;;;;;;13.37;9.60;;;0.60;74.70;;;;;;10477974;28;20206;-78
2023/01/24 16:30:05;;;;;;;13.53;9.03;;;0.60;1.00;;;;;;10477654;28;20231;-77
2023/01/24 16:35:26;;;;;;;14.40;9.23;;;0.50;1.00;;;;;;10478092;28;20240;-78
2023/01/24 16:40:47;;;;;;;20.33;10.37;;;0.50;1.00;;;;;;10476856;28;20233;-77
2023/01/24 16:46:19;;;;;;;18.70;10.73;;;0.40;1.00;;;;;;10477042;28;20243;-78
2023/01/24 16:51:44;;;;;;;14.97;9.40;;;0.30;99.90;;;;;;10447051;28;20294;-78
2023/01/24 16:57:05;;;;;;;10.70;8.30;;;0.40;99.90;;;;;;10447859;28;20302;-78
2023/01/24 17:02:26;;;;;;;13.43;8.87;;;0.40;99.90;;;;;;10435317;28;20206;-77
2023/01/24 17:07:49;;;;;;;11.97;8.53;;;0.50;1.00;;;;;;10436263;28;20195;-76
2023/01/24 17:13:10;;;;;;;12.33;8.10;;;0.40;1.00;;;;;;10479682;28;20218;-78
2023/01/24 17:18:32;;;;;;;34.10;17.70;;;0.40;1.00;;;;;;10485849;28;20214;-78
2023/01/24 17:23:53;;;;;;;23.33;12.60;;;0.50;1.00;;;;;;10485243;28;20551;-78
2023/01/24 17:29:14;;;;;;;60.40;29.43;;;0.50;52.90;;;;;;10483795;28;20389;-78
2023/01/24 17:34:35;;;;;;;30.20;16.23;;;0.40;1.00;;;;;;10485135;28;20224;-78
2023/01/24 17:39:56;;;;;;;19.27;11.47;;;0.40;99.90;;;;;;10482695;28;20205;-78
2023/01/24 17:45:17;;;;;;;17.10;11.20;;;0.40;1.00;;;;;;10482859;28;20393;-77
2023/01/24 17:50:38;;;;;;;20.10;11.53;;;0.40;1.00;;;;;;10484362;28;20236;-76
2023/01/24 17:55:59;;;;;;;19.33;9.73;;;0.40;1.00;;;;;;10484404;28;20227;-78
2023/01/24 18:01:20;;;;;;;16.80;10.93;;;0.40;99.90;;;;;;10458636;28;20200;-77
2023/01/24 18:06:43;;;;;;;24.50;13.00;;;0.40;99.90;;;;;;10443018;28;20260;-78
2023/01/24 18:12:04;;;;;;;21.03;12.80;;;0.40;1.00;;;;;;10450433;28;20225;-78
2023/01/24 18:17:25;;;;;;;18.87;10.27;;;0.50;99.90;;;;;;10467316;28;20252;-79
2023/01/24 18:22:46;;;;;;;30.47;10.63;;;0.50;1.00;;;;;;10482545;28;20195;-76
2023/01/24 18:28:07;;;;;;;25.20;14.33;;;0.40;99.90;;;;;;10466590;28;20384;-78
2023/01/24 18:33:28;;;;;;;25.67;13.77;;;0.40;99.90;;;;;;10481483;28;20231;-78
2023/01/24 18:38:49;;;;;;;22.37;11.90;;;0.40;1.00;;;;;;10483064;28;20201;-78
2023/01/24 18:44:11;;;;;;;21.43;11.20;;;0.40;1.00;;;;;;10482684;28;20205;-78
2023/01/24 18:49:32;;;;;;;14.87;9.27;;;0.40;99.90;;;;;;10463795;28;20249;-77
2023/01/24 18:54:54;;;;;;;12.40;8.23;;;0.30;99.90;;;;;;10454023;28;20429;-78
2023/01/24 19:00:18;;;;;;;15.87;9.33;;;0.30;99.90;;;;;;10466739;28;20267;-78
2023/01/24 19:05:43;;;;;;;21.13;10.90;;;0.30;99.90;;;;;;10480860;28;20282;-78
2023/01/24 19:11:10;;;;;;;21.57;11.13;;;0.40;1.00;;;;;;10481608;28;20211;-78
2023/01/24 19:16:39;;;;;;;27.50;15.33;;;0.30;1.00;;;;;;10479219;28;20248;-78
2023/01/24 19:22:03;;;;;;;29.97;16.33;;;0.30;99.90;;;;;;10481446;28;20195;-78
2023/01/24 19:27:26;;;;;;;44.77;20.30;;;0.30;41.10;;;;;;10459199;28;20201;-78
2023/01/24 19:32:48;;;;;;;30.60;15.90;;;0.20;99.90;;;;;;10457584;28;20222;-78
2023/01/24 19:38:09;;;;;;;13.17;9.97;;;0.30;99.90;;;;;;10476925;28;20195;-78
2023/01/24 19:43:31;;;;;;;15.93;10.17;;;0.20;1.00;;;;;;10477610;28;20266;-77
2023/01/24 19:48:52;;;;;;;15.10;10.10;;;0.20;1.00;;;;;;10464750;28;20234;-76
2023/01/24 19:54:14;;;;;;;15.17;10.20;;;0.10;99.90;;;;;;10450477;28;20541;-77
2023/01/24 19:59:35;;;;;;;15.10;9.93;;;0.10;1.00;;;;;;10477719;28;20205;-79
2023/01/24 20:04:57;;;;;;;14.07;9.83;;;0.10;99.90;;;;;;10478232;28;20210;-78
2023/01/24 20:10:18;;;;;;;16.43;10.33;;;0.00;98.90;;;;;;10472236;28;20207;-79
2023/01/24 20:15:39;;;;;;;19.97;11.20;;;0.00;99.90;;;;;;10478720;28;20454;-79
2023/01/24 20:21:01;;;;;;;16.37;10.57;;;-0.10;1.00;;;;;;10477196;28;20274;-78
2023/01/24 20:26:23;;;;;;;17.90;11.17;;;-0.10;99.90;;;;;;10477709;28;20410;-78
2023/01/24 20:31:45;;;;;;;23.27;12.23;;;-0.20;1.00;;;;;;10478798;28;20217;-79
2023/01/24 20:37:06;;;;;;;18.17;11.63;;;-0.30;1.00;;;;;;10476312;28;20201;-78
2023/01/24 20:42:29;;;;;;;18.33;10.07;;;-0.30;1.00;;;;;;10477714;28;20204;-78
2023/01/24 20:47:50;;;;;;;13.23;8.27;;;-0.30;1.00;;;;;;10476999;28;20201;-77
2023/01/24 20:53:12;;;;;;;13.83;8.60;;;-0.20;1.00;;;;;;10475317;28;20304;-78
2023/01/24 20:58:34;;;;;;;14.23;9.70;;;-0.20;1.00;;;;;;10476953;28;20221;-78
2023/01/24 21:04:02;;;;;;;11.80;8.77;;;-0.20;1.00;;;;;;10477150;28;20196;-78
2023/01/24 21:09:23;;;;;;;13.63;9.33;;;-0.30;34.30;;;;;;10476869;28;20202;-78
2023/01/24 21:14:44;;;;;;;15.70;9.73;;;-0.40;99.90;;;;;;10477472;28;20218;-78
2023/01/24 21:20:05;;;;;;;14.70;9.73;;;-0.40;40.30;;;;;;10475992;28;20198;-78
2023/01/24 21:25:26;;;;;;;16.77;9.70;;;-0.30;27.10;;;;;;10476382;28;20251;-79
2023/01/24 21:30:57;;;;;;;12.30;9.23;;;-0.30;99.90;;;;;;10477382;28;20353;-78
2023/01/24 21:36:20;;;;;;;14.33;8.80;;;-0.20;92.50;;;;;;10473699;28;20206;-79
2023/01/24 21:41:56;;;;;;;18.63;10.40;;;-0.20;87.30;;;;;;10476169;28;20199;-78
2023/01/24 21:47:17;;;;;;;15.33;9.70;;;-0.30;1.00;;;;;;10477208;28;20198;-78
2023/01/24 21:52:38;;;;;;;13.30;9.23;;;-0.30;1.00;;;;;;10460313;28;20221;-78
2023/01/24 21:58:04;;;;;;;12.07;8.83;;;-0.40;1.00;;;;;;10438634;28;20241;-78
2023/01/24 22:03:26;;;;;;;14.37;9.17;;;-0.50;1.00;;;;;;10443272;28;20198;-78
2023/01/24 22:08:47;;;;;;;15.47;9.60;;;-0.50;1.00;;;;;;10472293;28;20256;-78
2023/01/24 22:14:15;;;;;;;10.50;7.87;;;-0.50;11.30;;;;;;10483904;28;20267;-77
2023/01/24 22:19:42;;;;;;;13.77;9.53;;;-0.60;1.00;;;;;;10483726;28;20199;-77
2023/01/24 22:25:10;;;;;;;13.53;9.93;;;-0.50;1.00;;;;;;10482384;28;20205;-77
2023/01/24 22:30:33;;;;;;;13.23;9.50;;;-0.50;1.00;;;;;;10483561;28;20255;-77
2023/01/24 22:35:59;;;;;;;14.00;9.30;;;-0.50;1.00;;;;;;10481371;28;20285;-78
2023/01/24 22:41:21;;;;;;;12.40;8.57;;;-0.50;1.00;;;;;;10482866;28;20196;-77
2023/01/24 22:46:42;;;;;;;13.67;8.67;;;-0.70;29.50;;;;;;10481638;28;20504;-78
2023/01/24 22:52:04;;;;;;;12.33;8.90;;;-0.80;1.00;;;;;;10475928;28;20416;-77
2023/01/24 22:57:25;;;;;;;14.87;9.57;;;-0.90;1.00;;;;;;10482143;28;20252;-78
2023/01/24 23:02:46;;;;;;;15.57;10.20;;;-0.90;99.90;;;;;;10481113;28;20200;-76
2023/01/24 23:08:07;;;;;;;18.77;10.17;;;-0.80;99.90;;;;;;10471151;28;20247;-78
2023/01/24 23:25:10;;;;;;;14.77;10.30;;;-0.80;1.00;;;;;;10481468;28;20380;-77
2023/01/24 23:30:36;;;;;;;14.67;9.93;;;-0.80;99.90;;;;;;10481125;28;20192;-77
2023/01/24 23:35:57;;;;;;;15.93;9.80;;;-0.70;99.30;;;;;;10475292;28;20224;-76
2023/01/24 23:41:18;;;;;;;14.37;10.70;;;-0.70;1.00;;;;;;10479668;28;20212;-76
2023/01/24 23:46:40;;;;;;;16.23;10.20;;;-0.80;99.20;;;;;;10479320;28;20534;-76
2023/01/24 23:52:03;;;;;;;13.20;9.97;;;-0.80;99.90;;;;;;10445737;28;20222;-79
2023/01/24 23:57:24;;;;;;;14.17;10.00;;;-0.70;99.90;;;;;;10443239;28;20225;-76
